Reese River Valley, Nevada Weather observations

Data are for 10 minute period ending at time listed.
 Day   Time   Solar   Ave.   Ave.  Ave.  Vector  Max.   Baro.   Total    
  of    of     Rad.   Air    Rel.  Wind   Wind   Wind  Press.  Precip.   
Year   Day            Temp.  Hum.  Speed  Dir.   Gust                    
2014   (PST)  Kw/m2    F      %     mph   deg.    mph    mb.     in.     
-------------------------------------------------------------------------
 327    6:30   0.00   17.3    89    6.1   211     7.8   821.3    0.00 
 327    6:40   0.00   16.4    88    4.8   212     6.7   821.5    0.00 
 327    6:50   0.01   16.2    90    5.6   212     6.9   821.7    0.00 
 327    7:00   0.01   17.0    90    5.1   173     6.7   821.8    0.00 
 327    7:10   0.01   17.9    90    6.6   183     9.7   821.8    0.00 
 327    7:20   0.02   19.8    87    6.1   198     9.4   821.8    0.00 
 327    7:30   0.09   19.4    87    5.5   224     8.1   821.9    0.00 
 327    7:40   0.12   20.0    88    6.1   237     7.6   821.9    0.00 
 327    7:50   0.15   21.8    88    5.8   228     7.9   822.0    0.00 
 327    8:00   0.18   23.4    85    5.8   232     7.7   822.1    0.00 
 327    8:10   0.20   24.5    84    6.5   233     8.7   822.2    0.00 
 327    8:20   0.23   25.6    82    6.6   227     9.5   822.2    0.00 
 327    8:30   0.26   27.3    80    4.9   224     6.3   821.9    0.00 
 327    8:40   0.29   28.8    79    3.9   242     5.1   821.9    0.00 
 327    8:50   0.31   29.8    77    5.6   252     7.7   822.0    0.00 
 327    9:00   0.36   30.1    76    6.6   245     8.7   822.0    0.00 
 327    9:10   0.34   30.8    73    5.8   231     7.5   821.9    0.00 
 327    9:20   0.38   31.7    70    5.1   234     6.9   822.0    0.00 
 327    9:30   0.36   32.3    67    4.0   238     6.3   822.0    0.00 
 327    9:40   0.43   33.0    63    3.6   249     6.4   822.2    0.00 
 327    9:50   0.45   33.8    61    3.0   257     4.8   822.3    0.00 
 327   10:00   0.47   34.9    53    1.0   264     2.9   822.6    0.00 
 327   10:10   0.46   36.3    46    1.0    43     2.9   822.6    0.00 
 327   10:20   0.42   37.1    46    1.6   159     3.9   822.6    0.00 
 327   10:30   0.47   36.5    46    2.4    61     4.5   822.5    0.00 
 327   10:40   0.50   36.4    44    1.7    38     3.7   822.4    0.00 
 327   10:50   0.49   36.9    44    3.2    90     5.5   822.1    0.00 
 327   11:00   0.46   37.6    41    2.0   150     5.6   821.9    0.00 
 327   11:10   0.40   37.6    43    3.3   135     5.6   821.7    0.00 
 327   11:20   0.37   37.1    40    2.3   132     5.6   821.6    0.00 
 327   11:30   0.33   37.2    40    2.3   119     5.0   821.5    0.00 
 327   11:40   0.45   37.3    40    3.4   148     5.9   821.3    0.00 
 327   11:50   0.50   38.5    36    2.2   146     5.4   821.1    0.00 
 327   12:00   0.49   39.2    37    3.2   178     7.7   821.0    0.00 
 327   12:10   0.26   38.1    36    2.2   209     5.3   821.0    0.00 
 327   12:20   0.34   38.3    37    1.2   110     3.5   820.8    0.00 
 327   12:30   0.41   38.8    36    2.1   131     4.7   820.5    0.00 
 327   12:40   0.42   39.0    34    2.8   156     6.0   820.4    0.00 
 327   12:50   0.34   38.8    36    3.4   254     8.0   820.4    0.00 
 327   13:00   0.37   39.5    37    0.7   344     2.6   820.3    0.00 
 327   13:10   0.28   39.4    36    1.9    18     3.7   820.3    0.00 
 327   13:20   0.24   39.6    37    1.1    94     4.2   820.1    0.00 
 327   13:30   0.28   39.3    40    2.9   137     5.2   820.2    0.00 
 327   13:40   0.42   41.1    36    1.1   152     3.6   820.0    0.00 
 327   13:50   0.43   41.4    33    1.5   123     6.1   819.8    0.00 
 327   14:00   0.36   41.7    33    1.5    17     3.5   819.7    0.00 
 327   14:10   0.34   41.0    33    1.7   337     4.0   819.6    0.00 
 327   14:20   0.35   41.5    33    1.8   291     4.6   819.6    0.00 
 327   14:30   0.30   41.1    33    2.8   288     6.2   819.7    0.00 
 327   14:40   0.18   40.5    32    2.6   222     5.2   819.8    0.00 
 327   14:50   0.24   41.7    31    1.5   220     3.5   819.7    0.00 
 327   15:00   0.20   41.6    32    2.8    37     5.8   819.7    0.00 
 327   15:10   0.12   40.3    32    2.7    65     4.4   819.6    0.00 
 327   15:20   0.08   39.5    34    3.0    49     4.5   819.6    0.00 
 327   15:30   0.06   38.6    39    3.4    34     4.3   819.7    0.00 
 327   15:40   0.04   37.5    47    3.3    35     4.0   819.8    0.00 
 327   15:50   0.04   37.1    49    2.4    47     3.3   819.8    0.00 
 327   16:00   0.03   36.9    47    2.0    46     2.3   819.8    0.00 
 327   16:10   0.02   36.9    46    1.1    35     1.5   819.9    0.00 
 327   16:20   0.01   35.7    54    0.8    35     1.4   820.1    0.00 
 327   16:30   0.00   33.6    61    1.1    88     2.9   820.1    0.00 
 327   16:40   0.00   32.4    64    2.3   116     3.4   820.4    0.00 
 327   16:50   0.00   30.9    66    3.2   112     4.2   820.4    0.00 
 327   17:00   0.00   31.0    63    3.6   111     4.7   820.4    0.00 
 327   17:10   0.00   31.0    62    4.7   119     5.6   820.2    0.00 
 327   17:20   0.00   30.9    61    3.5   131     5.1   820.3    0.00 
 327   17:30   0.00   30.1    64    2.3   206     4.4   820.5    0.00 
 327   17:40   0.00   28.3    72    1.9   247     3.1   820.6    0.00 
 327   17:50   0.00   28.8    72    3.8   219     5.3   820.5    0.00 
 327   18:00   0.00   27.6    76    4.1   215     5.7   820.5    0.00 
 327   18:10   0.00   28.1    74    4.0   201     4.8   820.4    0.00 
 327   18:20   0.00   28.5    74    4.5   177     5.9   820.5    0.00 
 327   18:30   0.00   28.8    74    4.0   166     4.9   820.7    0.00 
 327   18:40   0.00   27.8    76    4.6   147     5.3   820.7    0.00 
 327   18:50   0.00   27.8    75    2.5   152     3.7   820.9    0.00 
 327   19:00   0.00   28.2    69    1.1   130     2.3   821.0    0.00 
 327   19:10   0.00   29.8    65    1.6   137     2.6   821.0    0.00 
 327   19:20   0.00   29.3    67    2.6   165     4.0   821.1    0.00 
 327   19:30   0.00   27.9    77    2.8   181     4.1   821.1    0.00 
 327   19:40   0.00   25.1    80    3.2   226     4.2   821.0    0.00 
 327   19:50   0.00   24.4    84    3.6   208     4.2   821.0    0.00 
 327   20:00   0.00   24.3    85    3.6   166     4.6   821.0    0.00 
 327   20:10   0.00   23.5    85    4.3   185     5.0   821.0    0.00 
 327   20:20   0.00   22.7    86    4.4   177     5.3   821.1    0.00 
 327   20:30   0.00   22.8    86    4.4   172     5.2   821.1    0.00 
 327   20:40   0.00   22.4    86    3.9   164     4.8   821.1    0.00 
 327   20:50   0.00   22.3    86    4.5   176     5.4   821.2    0.00 
 327   21:00   0.00   21.9    85    5.1   169     5.8   821.2    0.00 
 327   21:10   0.00   21.7    85    6.5   196     8.3   821.2    0.00 
 327   21:20   0.00   22.9    83    6.5   180     8.0   821.2    0.00 
 327   21:30   0.00   22.9    82    5.7   190     7.1   821.2    0.00 
 327   21:40   0.00   21.8    83    4.4   190     6.2   821.2    0.00 
 327   21:50   0.00   21.5    82    3.1   170     4.6   821.4    0.00 
 327   22:00   0.00   21.7    81    4.1   185     5.2   821.4    0.00 
 327   22:10   0.00   21.3    78    5.0   191     5.9   821.6    0.00 
 327   22:20   0.00   19.9    83    4.1   185     5.5   821.7    0.00 
 327   22:30   0.00   21.1    79    4.9   164     5.6   821.8    0.00 
 327   22:40   0.00   20.6    78    5.0   204     6.9   821.8    0.00 
 327   22:50   0.00   19.3    86    5.2   190     6.9   821.6    0.00 
 327   23:00   0.00   20.2    84    6.8   191     8.3   821.7    0.00 
 327   23:10   0.00   20.4    86    6.8   205     8.8   821.7    0.00 
 327   23:20   0.00   20.5    88    6.4   200     8.7   821.7    0.00 
 327   23:30   0.00   20.4    89    6.9   212     8.7   821.7    0.00 
 327   23:40   0.00   20.1    88    6.2   180     8.3   821.8    0.00 
 327   23:50   0.00   19.7    86    5.8   208     7.7   821.8    0.00 
 328    0:00   0.00   20.3    85    5.1   190     7.2   821.7    0.00 
 328    0:10   0.00   20.6    83    5.7   192     7.6   821.6    0.00 
 328    0:20   0.00   20.5    86    8.7   223    12.7   821.3    0.00 
 328    0:30   0.00   20.2    87    9.6   228    13.1   821.1    0.00 
 328    0:40   0.00   21.0    83    7.1   222     9.9   821.2    0.00 
 328    0:50   0.00   22.1    78    5.2   226     6.4   821.3    0.00 
 328    1:00   0.00   21.8    78    6.5   232     9.0   821.3    0.00 
 328    1:10   0.00   20.1    84    8.0   239    10.3   821.3    0.00 
 328    1:20   0.00   20.2    84    9.0   240    10.7   821.4    0.00 
 328    1:30   0.00   20.6    83    9.8   238    11.9   821.3    0.00 
 328    1:40   0.00   20.5    83    9.0   235    12.0   821.3    0.00 
 328    1:50   0.00   20.2    83    5.7   179     8.3   821.4    0.00 
 328    2:00   0.00   19.9    83    6.0   196     7.7   821.5    0.00 
 328    2:10   0.00   19.8    82    7.2   215    11.0   821.4    0.00 
 328    2:20   0.00   20.7    78    5.8   189     8.7   821.4    0.00 
 328    2:30   0.00   20.3    78    6.2   199     8.6   821.6    0.00 
 328    2:40   0.00   20.5    76    5.0   199     8.7   821.6    0.00 
 328    2:50   0.00   20.2    74    2.1   208     4.1   821.8    0.00 
 328    3:00   0.00   18.5    79    2.8   224     4.3   821.7    0.00 
 328    3:10   0.00   17.7    80    5.7   212     7.2   821.8    0.00 
 328    3:20   0.00   18.0    80    6.3   193     7.4   821.8    0.00 
 328    3:30   0.00   16.8    80    5.5   171     6.7   821.8    0.00 
 328    3:40   0.00   15.9    82    5.0   169     6.4   822.0    0.00 
 328    3:50   0.00   16.0    82    3.5   199     4.6   822.2    0.00 
 328    4:00   0.00   15.3    82    3.6   211     5.2   822.4    0.00 
 328    4:10   0.00   14.9    82    4.3   193     5.0   822.5    0.00 
 328    4:20   0.00   14.0    82    5.0   204     5.9   822.7    0.00 
 328    4:30   0.00   13.8    85    5.2   196     6.1   822.8    0.00 
 328    4:40   0.00   14.4    85    5.5   203     6.9   822.9    0.00 
 328    4:50   0.00   14.4    84    3.6   182     5.3   823.0    0.00 
 328    5:00   0.00   13.7    85    4.1   198     5.8   823.1    0.00 
 328    5:10   0.00   13.6    86    5.0   197     7.2   823.2    0.00 
 328    5:20   0.00   14.2    85    4.8   193     6.8   823.4    0.00 
 328    5:30   0.00   13.7    84    2.4   192     4.9   823.6    0.00 
 328    5:40   0.00   13.2    84    3.8   210     5.2   823.7    0.00 
 328    5:50   0.00   12.8    86    4.6   185     6.5   823.8    0.00 
 328    6:00   0.00   13.6    85    5.7   187     7.5   823.8    0.00 
 328    6:10   0.00   13.6    84    4.9   191     5.8   823.8    0.00 
 328    6:20   0.00   12.6    85    4.6   214     6.2   824.0    0.00 

Return to Reese River Valley graphs page.


Western Regional Climate Center,wrcc@dri.edu